sensor_id;sensor_type;location;lat;lon;timestamp;P1;durP1;ratioP1;P2;durP2;ratioP2
48596;SDS011;34382;43.160;24.148;2023-08-24T00:26:46;13.80;;;8.52;;
48596;SDS011;34382;43.160;24.148;2023-08-24T00:28:19;14.85;;;8.77;;
48596;SDS011;34382;43.160;24.148;2023-08-24T00:29:51;13.75;;;8.55;;
48596;SDS011;34382;43.160;24.148;2023-08-24T00:31:23;15.75;;;8.48;;
48596;SDS011;34382;43.160;24.148;2023-08-24T00:32:55;12.13;;;7.77;;
48596;SDS011;34382;43.160;24.148;2023-08-24T00:34:27;13.75;;;7.60;;
48596;SDS011;34382;43.160;24.148;2023-08-24T00:36:01;13.43;;;8.48;;
48596;SDS011;34382;43.160;24.148;2023-08-24T00:37:34;13.27;;;8.50;;
48596;SDS011;34382;43.160;24.148;2023-08-24T00:39:06;12.02;;;8.20;;
48596;SDS011;34382;43.160;24.148;2023-08-24T00:58:22;12.10;;;8.00;;
48596;SDS011;34382;43.160;24.148;2023-08-24T00:59:56;13.30;;;8.32;;
48596;SDS011;34382;43.160;24.148;2023-08-24T01:03:00;14.57;;;7.97;;
48596;SDS011;34382;43.160;24.148;2023-08-24T01:04:33;15.10;;;8.73;;
48596;SDS011;34382;43.160;24.148;2023-08-24T01:06:05;14.73;;;8.32;;
48596;SDS011;34382;43.160;24.148;2023-08-24T01:07:38;15.55;;;8.85;;
48596;SDS011;34382;43.160;24.148;2023-08-24T01:09:11;13.13;;;8.35;;
48596;SDS011;34382;43.160;24.148;2023-08-24T01:10:45;13.88;;;8.55;;
48596;SDS011;34382;43.160;24.148;2023-08-24T01:12:35;13.05;;;8.45;;
48596;SDS011;34382;43.160;24.148;2023-08-24T01:14:23;12.35;;;8.13;;
48596;SDS011;34382;43.160;24.148;2023-08-24T01:16:16;13.95;;;8.82;;
48596;SDS011;34382;43.160;24.148;2023-08-24T01:17:51;15.02;;;9.02;;
48596;SDS011;34382;43.160;24.148;2023-08-24T01:21:05;14.35;;;9.07;;
48596;SDS011;34382;43.160;24.148;2023-08-24T01:23:02;14.45;;;9.13;;
48596;SDS011;34382;43.160;24.148;2023-08-24T01:24:40;14.32;;;8.68;;
48596;SDS011;34382;43.160;24.148;2023-08-24T01:26:18;14.93;;;8.73;;
48596;SDS011;34382;43.160;24.148;2023-08-24T01:27:51;13.23;;;8.90;;
48596;SDS011;34382;43.160;24.148;2023-08-24T01:29:24;12.98;;;8.52;;
48596;SDS011;34382;43.160;24.148;2023-08-24T01:30:56;14.32;;;8.60;;
48596;SDS011;34382;43.160;24.148;2023-08-24T01:57:15;12.52;;;8.35;;
48596;SDS011;34382;43.160;24.148;2023-08-24T01:58:47;14.23;;;8.45;;
48596;SDS011;34382;43.160;24.148;2023-08-24T02:00:20;12.57;;;8.05;;
48596;SDS011;34382;43.160;24.148;2023-08-24T02:01:52;14.38;;;9.05;;
48596;SDS011;34382;43.160;24.148;2023-08-24T02:03:24;12.85;;;8.15;;
48596;SDS011;34382;43.160;24.148;2023-08-24T02:04:56;14.23;;;9.00;;
48596;SDS011;34382;43.160;24.148;2023-08-24T02:06:28;14.15;;;8.35;;
48596;SDS011;34382;43.160;24.148;2023-08-24T02:08:01;15.77;;;9.18;;
48596;SDS011;34382;43.160;24.148;2023-08-24T02:09:33;13.50;;;8.38;;
48596;SDS011;34382;43.160;24.148;2023-08-24T02:11:07;14.02;;;8.57;;
48596;SDS011;34382;43.160;24.148;2023-08-24T02:12:39;20.13;;;8.82;;
48596;SDS011;34382;43.160;24.148;2023-08-24T02:14:11;12.90;;;8.45;;
48596;SDS011;34382;43.160;24.148;2023-08-24T02:26:18;12.95;;;8.10;;
48596;SDS011;34382;43.160;24.148;2023-08-24T02:27:52;12.75;;;8.75;;
48596;SDS011;34382;43.160;24.148;2023-08-24T02:29:24;13.18;;;9.00;;
48596;SDS011;34382;43.160;24.148;2023-08-24T02:31:00;14.55;;;9.10;;
48596;SDS011;34382;43.160;24.148;2023-08-24T02:32:33;13.68;;;8.82;;
48596;SDS011;34382;43.160;24.148;2023-08-24T02:34:05;14.23;;;8.73;;
48596;SDS011;34382;43.160;24.148;2023-08-24T02:35:38;12.40;;;8.27;;
48596;SDS011;34382;43.160;24.148;2023-08-24T02:37:11;13.02;;;8.68;;
48596;SDS011;34382;43.160;24.148;2023-08-24T02:38:43;12.82;;;8.75;;
48596;SDS011;34382;43.160;24.148;2023-08-24T02:40:15;14.43;;;8.65;;
48596;SDS011;34382;43.160;24.148;2023-08-24T02:41:49;14.27;;;9.13;;
48596;SDS011;34382;43.160;24.148;2023-08-24T02:43:21;13.68;;;8.75;;
48596;SDS011;34382;43.160;24.148;2023-08-24T02:44:53;14.02;;;8.38;;
48596;SDS011;34382;43.160;24.148;2023-08-24T02:46:26;15.73;;;8.57;;
48596;SDS011;34382;43.160;24.148;2023-08-24T02:47:58;13.07;;;8.23;;
48596;SDS011;34382;43.160;24.148;2023-08-24T02:49:30;12.75;;;8.55;;
48596;SDS011;34382;43.160;24.148;2023-08-24T02:51:03;16.00;;;9.38;;
48596;SDS011;34382;43.160;24.148;2023-08-24T02:52:36;13.30;;;8.65;;
48596;SDS011;34382;43.160;24.148;2023-08-24T02:54:10;12.88;;;8.48;;
48596;SDS011;34382;43.160;24.148;2023-08-24T02:55:42;14.75;;;9.45;;
48596;SDS011;34382;43.160;24.148;2023-08-24T02:57:15;11.93;;;7.93;;
48596;SDS011;34382;43.160;24.148;2023-08-24T02:58:47;13.00;;;8.43;;
48596;SDS011;34382;43.160;24.148;2023-08-24T03:01:53;12.73;;;8.05;;
48596;SDS011;34382;43.160;24.148;2023-08-24T03:03:25;14.18;;;8.73;;
48596;SDS011;34382;43.160;24.148;2023-08-24T03:08:30;13.75;;;8.88;;
48596;SDS011;34382;43.160;24.148;2023-08-24T03:10:03;13.02;;;8.38;;
48596;SDS011;34382;43.160;24.148;2023-08-24T03:11:36;14.50;;;8.95;;
48596;SDS011;34382;43.160;24.148;2023-08-24T03:13:08;13.25;;;8.35;;
48596;SDS011;34382;43.160;24.148;2023-08-24T03:56:57;15.23;;;8.40;;
48596;SDS011;34382;43.160;24.148;2023-08-24T03:58:32;13.60;;;8.20;;
48596;SDS011;34382;43.160;24.148;2023-08-24T04:00:08;12.45;;;8.27;;
48596;SDS011;34382;43.160;24.148;2023-08-24T04:01:44;13.65;;;8.77;;
48596;SDS011;34382;43.160;24.148;2023-08-24T04:03:16;14.05;;;8.68;;
48596;SDS011;34382;43.160;24.148;2023-08-24T04:04:49;13.38;;;8.20;;
48596;SDS011;34382;43.160;24.148;2023-08-24T04:14:57;13.35;;;8.80;;
48596;SDS011;34382;43.160;24.148;2023-08-24T04:16:29;13.37;;;9.10;;
48596;SDS011;34382;43.160;24.148;2023-08-24T04:18:01;12.68;;;8.70;;
48596;SDS011;34382;43.160;24.148;2023-08-24T04:19:37;15.30;;;8.82;;
48596;SDS011;34382;43.160;24.148;2023-08-24T04:21:10;13.07;;;8.63;;
48596;SDS011;34382;43.160;24.148;2023-08-24T04:22:42;15.50;;;9.05;;
48596;SDS011;34382;43.160;24.148;2023-08-24T04:24:15;14.45;;;8.77;;
48596;SDS011;34382;43.160;24.148;2023-08-24T04:25:47;13.32;;;9.05;;
48596;SDS011;34382;43.160;24.148;2023-08-24T04:27:19;12.77;;;8.63;;
48596;SDS011;34382;43.160;24.148;2023-08-24T04:28:53;16.83;;;10.07;;
48596;SDS011;34382;43.160;24.148;2023-08-24T04:30:25;15.50;;;10.32;;
48596;SDS011;34382;43.160;24.148;2023-08-24T04:31:58;14.48;;;9.60;;
48596;SDS011;34382;43.160;24.148;2023-08-24T04:33:30;15.73;;;9.25;;
48596;SDS011;34382;43.160;24.148;2023-08-24T04:35:02;12.90;;;9.30;;
48596;SDS011;34382;43.160;24.148;2023-08-24T04:36:35;13.90;;;8.23;;
48596;SDS011;34382;43.160;24.148;2023-08-24T04:38:07;13.77;;;9.50;;
48596;SDS011;34382;43.160;24.148;2023-08-24T04:39:41;13.05;;;8.48;;
48596;SDS011;34382;43.160;24.148;2023-08-24T04:41:13;13.13;;;9.25;;
48596;SDS011;34382;43.160;24.148;2023-08-24T04:42:45;15.45;;;8.75;;
48596;SDS011;34382;43.160;24.148;2023-08-24T04:44:17;12.80;;;8.77;;
48596;SDS011;34382;43.160;24.148;2023-08-24T04:45:50;13.93;;;8.32;;
48596;SDS011;34382;43.160;24.148;2023-08-24T04:47:24;12.93;;;8.57;;
48596;SDS011;34382;43.160;24.148;2023-08-24T04:48:56;17.17;;;8.98;;
48596;SDS011;34382;43.160;24.148;2023-08-24T04:50:28;14.00;;;9.00;;
48596;SDS011;34382;43.160;24.148;2023-08-24T04:52:01;15.90;;;9.38;;
48596;SDS011;34382;43.160;24.148;2023-08-24T04:53:33;12.02;;;8.50;;
48596;SDS011;34382;43.160;24.148;2023-08-24T04:55:06;14.40;;;9.35;;
48596;SDS011;34382;43.160;24.148;2023-08-24T04:56:38;15.70;;;8.93;;
48596;SDS011;34382;43.160;24.148;2023-08-24T04:58:11;14.90;;;9.30;;
48596;SDS011;34382;43.160;24.148;2023-08-24T05:04:44;12.95;;;8.35;;
48596;SDS011;34382;43.160;24.148;2023-08-24T05:06:16;14.25;;;8.80;;
48596;SDS011;34382;43.160;24.148;2023-08-24T05:07:49;14.00;;;9.20;;
48596;SDS011;34382;43.160;24.148;2023-08-24T05:09:21;13.50;;;9.45;;
48596;SDS011;34382;43.160;24.148;2023-08-24T05:10:55;13.20;;;9.15;;
48596;SDS011;34382;43.160;24.148;2023-08-24T05:12:27;12.83;;;8.83;;
48596;SDS011;34382;43.160;24.148;2023-08-24T05:17:17;14.00;;;9.50;;
48596;SDS011;34382;43.160;24.148;2023-08-24T05:18:51;14.75;;;8.98;;
48596;SDS011;34382;43.160;24.148;2023-08-24T05:20:24;14.45;;;9.15;;
48596;SDS011;34382;43.160;24.148;2023-08-24T05:21:56;14.25;;;9.63;;
48596;SDS011;34382;43.160;24.148;2023-08-24T05:23:32;15.88;;;9.57;;
48596;SDS011;34382;43.160;24.148;2023-08-24T05:25:04;18.30;;;10.45;;
48596;SDS011;34382;43.160;24.148;2023-08-24T05:26:37;15.30;;;9.85;;
48596;SDS011;34382;43.160;24.148;2023-08-24T05:28:09;13.90;;;9.50;;
48596;SDS011;34382;43.160;24.148;2023-08-24T05:29:42;14.63;;;9.07;;
48596;SDS011;34382;43.160;24.148;2023-08-24T05:32:51;13.23;;;9.07;;
48596;SDS011;34382;43.160;24.148;2023-08-24T05:34:23;14.02;;;9.23;;
48596;SDS011;34382;43.160;24.148;2023-08-24T05:35:55;15.63;;;9.30;;
48596;SDS011;34382;43.160;24.148;2023-08-24T05:37:28;14.63;;;9.77;;
48596;SDS011;34382;43.160;24.148;2023-08-24T05:39:00;14.32;;;9.77;;
48596;SDS011;34382;43.160;24.148;2023-08-24T05:40:37;14.82;;;9.85;;
48596;SDS011;34382;43.160;24.148;2023-08-24T05:42:09;14.10;;;9.35;;
48596;SDS011;34382;43.160;24.148;2023-08-24T05:43:41;13.05;;;9.10;;
48596;SDS011;34382;43.160;24.148;2023-08-24T05:45:13;14.23;;;9.82;;
48596;SDS011;34382;43.160;24.148;2023-08-24T05:46:46;13.70;;;9.18;;
48596;SDS011;34382;43.160;24.148;2023-08-24T05:48:18;14.47;;;9.50;;
48596;SDS011;34382;43.160;24.148;2023-08-24T05:49:50;13.95;;;9.50;;
48596;SDS011;34382;43.160;24.148;2023-08-24T05:51:22;13.43;;;9.23;;
48596;SDS011;34382;43.160;24.148;2023-08-24T05:52:55;13.65;;;8.90;;
48596;SDS011;34382;43.160;24.148;2023-08-24T05:54:27;13.57;;;9.35;;
48596;SDS011;34382;43.160;24.148;2023-08-24T05:55:59;13.90;;;9.38;;
48596;SDS011;34382;43.160;24.148;2023-08-24T05:57:31;13.93;;;9.30;;
48596;SDS011;34382;43.160;24.148;2023-08-24T05:59:04;13.93;;;8.60;;
48596;SDS011;34382;43.160;24.148;2023-08-24T06:00:37;12.32;;;8.52;;
48596;SDS011;34382;43.160;24.148;2023-08-24T06:02:09;13.27;;;9.03;;
48596;SDS011;34382;43.160;24.148;2023-08-24T06:03:41;15.35;;;9.10;;
48596;SDS011;34382;43.160;24.148;2023-08-24T06:05:13;14.00;;;9.02;;
48596;SDS011;34382;43.160;24.148;2023-08-24T06:06:46;13.05;;;9.32;;
48596;SDS011;34382;43.160;24.148;2023-08-24T06:08:18;16.33;;;9.60;;
48596;SDS011;34382;43.160;24.148;2023-08-24T06:09:50;16.40;;;9.80;;
48596;SDS011;34382;43.160;24.148;2023-08-24T06:11:22;14.57;;;9.05;;
48596;SDS011;34382;43.160;24.148;2023-08-24T06:12:54;13.63;;;9.77;;
48596;SDS011;34382;43.160;24.148;2023-08-24T06:14:27;13.60;;;9.57;;
48596;SDS011;34382;43.160;24.148;2023-08-24T06:15:59;12.85;;;9.38;;
48596;SDS011;34382;43.160;24.148;2023-08-24T06:17:32;12.85;;;9.63;;
48596;SDS011;34382;43.160;24.148;2023-08-24T06:19:04;13.27;;;9.50;;
48596;SDS011;34382;43.160;24.148;2023-08-24T06:20:36;14.60;;;9.55;;
48596;SDS011;34382;43.160;24.148;2023-08-24T06:22:08;14.13;;;9.32;;
48596;SDS011;34382;43.160;24.148;2023-08-24T06:23:41;12.67;;;9.10;;
48596;SDS011;34382;43.160;24.148;2023-08-24T06:25:13;13.73;;;9.80;;
48596;SDS011;34382;43.160;24.148;2023-08-24T06:26:45;14.15;;;9.77;;
48596;SDS011;34382;43.160;24.148;2023-08-24T06:28:18;13.38;;;9.18;;
48596;SDS011;34382;43.160;24.148;2023-08-24T06:29:50;13.50;;;9.07;;
48596;SDS011;34382;43.160;24.148;2023-08-24T06:31:22;14.00;;;9.30;;
48596;SDS011;34382;43.160;24.148;2023-08-24T06:32:54;14.35;;;9.35;;
48596;SDS011;34382;43.160;24.148;2023-08-24T06:34:26;14.23;;;9.80;;
48596;SDS011;34382;43.160;24.148;2023-08-24T06:35:59;13.05;;;9.15;;
48596;SDS011;34382;43.160;24.148;2023-08-24T06:37:31;11.82;;;8.40;;
48596;SDS011;34382;43.160;24.148;2023-08-24T06:39:04;14.18;;;9.13;;
48596;SDS011;34382;43.160;24.148;2023-08-24T06:40:36;13.38;;;8.82;;
48596;SDS011;34382;43.160;24.148;2023-08-24T06:42:08;13.63;;;8.95;;
48596;SDS011;34382;43.160;24.148;2023-08-24T06:43:40;14.95;;;9.65;;
48596;SDS011;34382;43.160;24.148;2023-08-24T06:45:13;12.82;;;8.82;;
48596;SDS011;34382;43.160;24.148;2023-08-24T06:46:45;14.82;;;8.88;;
48596;SDS011;34382;43.160;24.148;2023-08-24T06:48:18;15.73;;;10.15;;
48596;SDS011;34382;43.160;24.148;2023-08-24T07:17:47;48.95;;;16.13;;
48596;SDS011;34382;43.160;24.148;2023-08-24T07:19:19;16.30;;;11.20;;
48596;SDS011;34382;43.160;24.148;2023-08-24T07:20:52;14.70;;;10.57;;
48596;SDS011;34382;43.160;24.148;2023-08-24T07:22:25;16.27;;;10.82;;
48596;SDS011;34382;43.160;24.148;2023-08-24T07:25:41;15.80;;;10.77;;
48596;SDS011;34382;43.160;24.148;2023-08-24T07:27:13;15.40;;;10.75;;
48596;SDS011;34382;43.160;24.148;2023-08-24T07:28:45;15.20;;;10.10;;
48596;SDS011;34382;43.160;24.148;2023-08-24T07:30:18;16.27;;;11.25;;
48596;SDS011;34382;43.160;24.148;2023-08-24T07:32:04;13.20;;;9.90;;
48596;SDS011;34382;43.160;24.148;2023-08-24T07:33:40;17.25;;;10.40;;
48596;SDS011;34382;43.160;24.148;2023-08-24T07:35:12;16.02;;;11.07;;
48596;SDS011;34382;43.160;24.148;2023-08-24T07:36:45;13.67;;;9.60;;
48596;SDS011;34382;43.160;24.148;2023-08-24T07:38:19;13.80;;;9.95;;
48596;SDS011;34382;43.160;24.148;2023-08-24T07:39:52;14.35;;;10.15;;
48596;SDS011;34382;43.160;24.148;2023-08-24T07:41:24;13.83;;;10.43;;
48596;SDS011;34382;43.160;24.148;2023-08-24T07:42:56;13.70;;;10.57;;
48596;SDS011;34382;43.160;24.148;2023-08-24T07:44:28;14.82;;;9.95;;
48596;SDS011;34382;43.160;24.148;2023-08-24T07:46:01;16.33;;;10.90;;
48596;SDS011;34382;43.160;24.148;2023-08-24T07:47:36;13.90;;;10.07;;
48596;SDS011;34382;43.160;24.148;2023-08-24T07:49:12;15.75;;;10.35;;
48596;SDS011;34382;43.160;24.148;2023-08-24T07:50:44;14.33;;;9.87;;
48596;SDS011;34382;43.160;24.148;2023-08-24T07:52:17;14.32;;;10.10;;
48596;SDS011;34382;43.160;24.148;2023-08-24T07:53:49;13.43;;;10.80;;
48596;SDS011;34382;43.160;24.148;2023-08-24T07:55:23;15.20;;;10.90;;
48596;SDS011;34382;43.160;24.148;2023-08-24T07:56:56;16.83;;;12.35;;
48596;SDS011;34382;43.160;24.148;2023-08-24T07:58:28;16.13;;;11.55;;
48596;SDS011;34382;43.160;24.148;2023-08-24T08:00:03;15.57;;;10.63;;
48596;SDS011;34382;43.160;24.148;2023-08-24T08:01:39;13.80;;;9.55;;
48596;SDS011;34382;43.160;24.148;2023-08-24T08:03:12;13.75;;;9.52;;
48596;SDS011;34382;43.160;24.148;2023-08-24T08:04:44;15.15;;;10.00;;
48596;SDS011;34382;43.160;24.148;2023-08-24T08:06:17;13.45;;;10.02;;
48596;SDS011;34382;43.160;24.148;2023-08-24T08:07:53;14.88;;;10.25;;
48596;SDS011;34382;43.160;24.148;2023-08-24T08:09:25;14.20;;;9.67;;
48596;SDS011;34382;43.160;24.148;2023-08-24T08:11:01;16.60;;;10.40;;
48596;SDS011;34382;43.160;24.148;2023-08-24T08:12:34;14.10;;;9.52;;
48596;SDS011;34382;43.160;24.148;2023-08-24T08:14:06;13.35;;;10.10;;
48596;SDS011;34382;43.160;24.148;2023-08-24T08:15:38;14.43;;;9.63;;
48596;SDS011;34382;43.160;24.148;2023-08-24T08:17:11;17.10;;;9.95;;
48596;SDS011;34382;43.160;24.148;2023-08-24T08:18:43;15.18;;;9.25;;
48596;SDS011;34382;43.160;24.148;2023-08-24T08:20:15;14.77;;;9.63;;
48596;SDS011;34382;43.160;24.148;2023-08-24T08:21:48;18.13;;;10.40;;
48596;SDS011;34382;43.160;24.148;2023-08-24T08:23:21;13.90;;;9.10;;
48596;SDS011;34382;43.160;24.148;2023-08-24T08:24:53;13.07;;;9.45;;
48596;SDS011;34382;43.160;24.148;2023-08-24T08:26:25;13.30;;;9.65;;
48596;SDS011;34382;43.160;24.148;2023-08-24T08:27:59;13.32;;;9.60;;
48596;SDS011;34382;43.160;24.148;2023-08-24T08:29:31;15.40;;;9.55;;
48596;SDS011;34382;43.160;24.148;2023-08-24T08:31:03;17.75;;;9.60;;
48596;SDS011;34382;43.160;24.148;2023-08-24T08:32:36;15.55;;;9.63;;
48596;SDS011;34382;43.160;24.148;2023-08-24T08:34:08;14.02;;;9.35;;
48596;SDS011;34382;43.160;24.148;2023-08-24T08:35:41;13.70;;;9.98;;
48596;SDS011;34382;43.160;24.148;2023-08-24T08:37:13;14.82;;;10.85;;
48596;SDS011;34382;43.160;24.148;2023-08-24T08:38:45;15.05;;;9.50;;
48596;SDS011;34382;43.160;24.148;2023-08-24T08:40:17;15.13;;;9.98;;
48596;SDS011;34382;43.160;24.148;2023-08-24T08:41:50;15.07;;;10.55;;
48596;SDS011;34382;43.160;24.148;2023-08-24T08:43:22;15.68;;;10.43;;
48596;SDS011;34382;43.160;24.148;2023-08-24T08:44:55;14.57;;;10.65;;
48596;SDS011;34382;43.160;24.148;2023-08-24T08:48:00;15.48;;;9.80;;
48596;SDS011;34382;43.160;24.148;2023-08-24T08:49:34;18.25;;;10.10;;
48596;SDS011;34382;43.160;24.148;2023-08-24T08:51:07;15.65;;;9.93;;
48596;SDS011;34382;43.160;24.148;2023-08-24T08:52:41;13.15;;;9.13;;
48596;SDS011;34382;43.160;24.148;2023-08-24T08:54:13;13.63;;;9.48;;
48596;SDS011;34382;43.160;24.148;2023-08-24T08:55:45;15.43;;;9.30;;
48596;SDS011;34382;43.160;24.148;2023-08-24T08:57:18;13.07;;;9.68;;
48596;SDS011;34382;43.160;24.148;2023-08-24T08:58:51;13.98;;;9.38;;
48596;SDS011;34382;43.160;24.148;2023-08-24T09:00:24;14.80;;;9.80;;
48596;SDS011;34382;43.160;24.148;2023-08-24T09:01:56;14.60;;;10.00;;
48596;SDS011;34382;43.160;24.148;2023-08-24T09:03:32;13.85;;;9.45;;
48596;SDS011;34382;43.160;24.148;2023-08-24T09:05:05;13.98;;;9.82;;
48596;SDS011;34382;43.160;24.148;2023-08-24T09:06:38;14.05;;;9.45;;
48596;SDS011;34382;43.160;24.148;2023-08-24T09:08:10;15.18;;;10.10;;
48596;SDS011;34382;43.160;24.148;2023-08-24T09:09:43;14.82;;;9.65;;
48596;SDS011;34382;43.160;24.148;2023-08-24T09:11:15;13.25;;;9.40;;
48596;SDS011;34382;43.160;24.148;2023-08-24T09:12:49;15.93;;;9.88;;
48596;SDS011;34382;43.160;24.148;2023-08-24T09:14:21;15.15;;;9.55;;
48596;SDS011;34382;43.160;24.148;2023-08-24T09:15:54;15.68;;;9.65;;
48596;SDS011;34382;43.160;24.148;2023-08-24T09:17:26;13.27;;;9.48;;
48596;SDS011;34382;43.160;24.148;2023-08-24T09:18:58;13.57;;;9.38;;
48596;SDS011;34382;43.160;24.148;2023-08-24T09:20:31;12.85;;;9.38;;
48596;SDS011;34382;43.160;24.148;2023-08-24T09:22:03;15.48;;;9.35;;
48596;SDS011;34382;43.160;24.148;2023-08-24T09:24:00;13.52;;;9.38;;
48596;SDS011;34382;43.160;24.148;2023-08-24T09:25:31;14.98;;;9.23;;
48596;SDS011;34382;43.160;24.148;2023-08-24T09:27:14;14.82;;;9.40;;
48596;SDS011;34382;43.160;24.148;2023-08-24T09:28:48;17.48;;;9.95;;
48596;SDS011;34382;43.160;24.148;2023-08-24T09:30:20;13.30;;;9.20;;
48596;SDS011;34382;43.160;24.148;2023-08-24T09:31:53;14.23;;;8.82;;
48596;SDS011;34382;43.160;24.148;2023-08-24T09:33:25;12.95;;;8.80;;
48596;SDS011;34382;43.160;24.148;2023-08-24T09:35:04;15.20;;;9.20;;
48596;SDS011;34382;43.160;24.148;2023-08-24T09:36:40;14.38;;;8.80;;
48596;SDS011;34382;43.160;24.148;2023-08-24T09:38:18;14.48;;;8.65;;
48596;SDS011;34382;43.160;24.148;2023-08-24T09:39:51;13.68;;;9.05;;
48596;SDS011;34382;43.160;24.148;2023-08-24T09:41:49;14.43;;;9.05;;
48596;SDS011;34382;43.160;24.148;2023-08-24T09:43:22;15.13;;;9.15;;
48596;SDS011;34382;43.160;24.148;2023-08-24T09:44:54;13.82;;;9.32;;
48596;SDS011;34382;43.160;24.148;2023-08-24T09:46:27;13.98;;;9.43;;
48596;SDS011;34382;43.160;24.148;2023-08-24T09:47:59;12.80;;;9.13;;
48596;SDS011;34382;43.160;24.148;2023-08-24T09:49:32;13.30;;;8.95;;
48596;SDS011;34382;43.160;24.148;2023-08-24T09:51:05;13.60;;;9.07;;
48596;SDS011;34382;43.160;24.148;2023-08-24T09:52:38;14.63;;;9.40;;
48596;SDS011;34382;43.160;24.148;2023-08-24T09:54:13;14.27;;;9.27;;
48596;SDS011;34382;43.160;24.148;2023-08-24T09:55:56;13.50;;;9.38;;
48596;SDS011;34382;43.160;24.148;2023-08-24T09:59:11;13.63;;;8.82;;
48596;SDS011;34382;43.160;24.148;2023-08-24T10:00:50;12.13;;;9.00;;
48596;SDS011;34382;43.160;24.148;2023-08-24T10:03:55;15.65;;;9.10;;
48596;SDS011;34382;43.160;24.148;2023-08-24T10:05:32;13.05;;;9.38;;
48596;SDS011;34382;43.160;24.148;2023-08-24T10:07:19;14.75;;;8.65;;
48596;SDS011;34382;43.160;24.148;2023-08-24T10:08:54;13.70;;;9.07;;
48596;SDS011;34382;43.160;24.148;2023-08-24T10:10:27;12.43;;;9.07;;
48596;SDS011;34382;43.160;24.148;2023-08-24T10:12:00;13.57;;;9.15;;
48596;SDS011;34382;43.160;24.148;2023-08-24T10:13:48;13.00;;;9.48;;
48596;SDS011;34382;43.160;24.148;2023-08-24T10:15:24;13.18;;;9.35;;
48596;SDS011;34382;43.160;24.148;2023-08-24T10:16:56;13.15;;;9.07;;
48596;SDS011;34382;43.160;24.148;2023-08-24T10:18:30;14.93;;;10.38;;
48596;SDS011;34382;43.160;24.148;2023-08-24T10:20:02;13.48;;;9.48;;
48596;SDS011;34382;43.160;24.148;2023-08-24T10:21:38;15.25;;;8.88;;
48596;SDS011;34382;43.160;24.148;2023-08-24T10:23:11;14.13;;;9.32;;
48596;SDS011;34382;43.160;24.148;2023-08-24T10:24:43;13.38;;;9.25;;
48596;SDS011;34382;43.160;24.148;2023-08-24T10:26:16;13.98;;;9.05;;
48596;SDS011;34382;43.160;24.148;2023-08-24T10:27:49;15.85;;;9.75;;
48596;SDS011;34382;43.160;24.148;2023-08-24T10:30:55;27.75;;;10.90;;
48596;SDS011;34382;43.160;24.148;2023-08-24T10:32:29;21.52;;;10.23;;
48596;SDS011;34382;43.160;24.148;2023-08-24T10:35:37;12.95;;;7.55;;
48596;SDS011;34382;43.160;24.148;2023-08-24T10:37:10;14.63;;;9.23;;
48596;SDS011;34382;43.160;24.148;2023-08-24T10:38:43;14.05;;;8.43;;
48596;SDS011;34382;43.160;24.148;2023-08-24T10:40:16;13.52;;;8.20;;
48596;SDS011;34382;43.160;24.148;2023-08-24T10:42:03;15.35;;;8.23;;
48596;SDS011;34382;43.160;24.148;2023-08-24T10:43:39;11.73;;;8.07;;
48596;SDS011;34382;43.160;24.148;2023-08-24T10:45:15;11.95;;;8.15;;
48596;SDS011;34382;43.160;24.148;2023-08-24T10:50:18;13.57;;;9.30;;
48596;SDS011;34382;43.160;24.148;2023-08-24T10:51:51;15.95;;;9.60;;
48596;SDS011;34382;43.160;24.148;2023-08-24T10:53:38;16.73;;;9.65;;
48596;SDS011;34382;43.160;24.148;2023-08-24T10:55:25;15.20;;;9.73;;
48596;SDS011;34382;43.160;24.148;2023-08-24T10:56:57;15.38;;;10.40;;
48596;SDS011;34382;43.160;24.148;2023-08-24T10:58:34;14.35;;;10.10;;
48596;SDS011;34382;43.160;24.148;2023-08-24T11:00:08;14.77;;;9.98;;
48596;SDS011;34382;43.160;24.148;2023-08-24T11:02:02;16.45;;;11.02;;
48596;SDS011;34382;43.160;24.148;2023-08-24T11:03:35;16.27;;;11.18;;
48596;SDS011;34382;43.160;24.148;2023-08-24T11:05:14;14.77;;;11.10;;
48596;SDS011;34382;43.160;24.148;2023-08-24T11:07:02;16.40;;;11.50;;
48596;SDS011;34382;43.160;24.148;2023-08-24T11:08:45;15.63;;;11.02;;
48596;SDS011;34382;43.160;24.148;2023-08-24T11:10:18;16.10;;;11.73;;
48596;SDS011;34382;43.160;24.148;2023-08-24T11:12:01;15.52;;;11.75;;
48596;SDS011;34382;43.160;24.148;2023-08-24T11:15:07;19.80;;;11.63;;
48596;SDS011;34382;43.160;24.148;2023-08-24T11:16:42;19.27;;;11.75;;
48596;SDS011;34382;43.160;24.148;2023-08-24T11:21:33;18.90;;;12.07;;
48596;SDS011;34382;43.160;24.148;2023-08-24T11:23:06;23.27;;;12.52;;
48596;SDS011;34382;43.160;24.148;2023-08-24T11:24:38;17.85;;;11.90;;
48596;SDS011;34382;43.160;24.148;2023-08-24T11:26:10;16.23;;;12.45;;
48596;SDS011;34382;43.160;24.148;2023-08-24T11:27:43;18.83;;;12.13;;
48596;SDS011;34382;43.160;24.148;2023-08-24T11:30:58;18.42;;;13.35;;
48596;SDS011;34382;43.160;24.148;2023-08-24T11:32:31;18.40;;;13.57;;
48596;SDS011;34382;43.160;24.148;2023-08-24T11:34:03;18.80;;;13.85;;
48596;SDS011;34382;43.160;24.148;2023-08-24T11:35:36;18.30;;;12.65;;
48596;SDS011;34382;43.160;24.148;2023-08-24T11:37:18;20.80;;;14.50;;
48596;SDS011;34382;43.160;24.148;2023-08-24T11:38:52;20.88;;;14.93;;
48596;SDS011;34382;43.160;24.148;2023-08-24T11:40:28;18.95;;;14.50;;
48596;SDS011;34382;43.160;24.148;2023-08-24T11:42:01;18.85;;;13.18;;
48596;SDS011;34382;43.160;24.148;2023-08-24T11:43:35;22.45;;;14.23;;
48596;SDS011;34382;43.160;24.148;2023-08-24T11:45:13;19.80;;;15.23;;
48596;SDS011;34382;43.160;24.148;2023-08-24T11:46:46;19.65;;;14.15;;
48596;SDS011;34382;43.160;24.148;2023-08-24T11:48:18;20.95;;;13.93;;
48596;SDS011;34382;43.160;24.148;2023-08-24T11:49:55;17.08;;;12.05;;
48596;SDS011;34382;43.160;24.148;2023-08-24T11:51:31;18.00;;;12.00;;
48596;SDS011;34382;43.160;24.148;2023-08-24T11:53:14;16.20;;;11.60;;
48596;SDS011;34382;43.160;24.148;2023-08-24T11:54:50;15.65;;;11.30;;
48596;SDS011;34382;43.160;24.148;2023-08-24T11:56:23;16.95;;;11.23;;
48596;SDS011;34382;43.160;24.148;2023-08-24T11:57:55;19.25;;;11.10;;
48596;SDS011;34382;43.160;24.148;2023-08-24T11:59:27;14.70;;;10.52;;
48596;SDS011;34382;43.160;24.148;2023-08-24T12:01:00;13.38;;;10.05;;
48596;SDS011;34382;43.160;24.148;2023-08-24T12:02:32;15.02;;;9.52;;
48596;SDS011;34382;43.160;24.148;2023-08-24T12:04:05;12.38;;;8.95;;
48596;SDS011;34382;43.160;24.148;2023-08-24T12:05:40;11.82;;;8.20;;
48596;SDS011;34382;43.160;24.148;2023-08-24T12:07:13;14.05;;;8.77;;
48596;SDS011;34382;43.160;24.148;2023-08-24T12:08:46;12.27;;;8.20;;
48596;SDS011;34382;43.160;24.148;2023-08-24T12:10:19;12.27;;;8.63;;
48596;SDS011;34382;43.160;24.148;2023-08-24T12:11:55;12.20;;;9.02;;
48596;SDS011;34382;43.160;24.148;2023-08-24T12:13:32;13.50;;;8.05;;
48596;SDS011;34382;43.160;24.148;2023-08-24T12:15:05;14.23;;;8.40;;
48596;SDS011;34382;43.160;24.148;2023-08-24T12:16:38;12.25;;;8.23;;
48596;SDS011;34382;43.160;24.148;2023-08-24T12:18:13;12.65;;;8.20;;
48596;SDS011;34382;43.160;24.148;2023-08-24T12:19:55;12.20;;;8.20;;
48596;SDS011;34382;43.160;24.148;2023-08-24T12:21:29;12.35;;;8.40;;
48596;SDS011;34382;43.160;24.148;2023-08-24T12:24:34;11.07;;;7.30;;